Southampton Airport

Airport
ICAO code: 
EGHI
IATA Code: 
SOU
Summary
ICAO Region: 
EUR
Territory: 
Location: 
Eastleigh,Southampton, England.,
Serving: 
Southampton
Elevation: 
44 ft
Coordinates: 
Aerial View: 
50° 56' 59.319" N, 1° 21' 23.389" W
Metar
Observation
EGHI 021620Z VRB01KT CAVOK 04/M02 Q1015
Station
Southampton / Weather Centre
Date/Time
2021-12-02 16:20:00
Wind speed
01 kts
Lowest cloud amount
clouds and visibility OK
Temperature
4°C
Dew point
-2°C
Humidity
64%
QNH
1015 hPa
Weather condition
n/a

Description

Small domestic and international airport serving the city of Southampton and environs; has co-located railway station.

Climatology

Temperate Marine climate/Oceanic climate (Köppen climate classification Cfb). Moderately cool summer and comparatively warm winter with a temperature range of only 14°C. Prevailing south-westerly winds from the Atlantic Ocean.

Runways

Designator Length Width Surface Rops
2/20 1723 37 ASP Yes/Yes
Airport map: 
Aerial View: 

SKYbrary Partners:

Safety knowledge contributed by: